Time;durP1;ratioP1;P1;durP2;ratioP2;P2;SDS_P1;SDS_P2;PMS_P1;PMS_P2;Temp;Humidity;BMP_temperature;BMP_pressure;BME280_temperature;BME280_humidity;BME280_pressure;Samples;Min_cycle;Max_cycle;Signal;HPM_P1;HPM_P2
2023/05/01 00:00:58;;;;;;;14.15;6.30;;;;;;;;;;5074612;28;20060;-63
2023/05/01 00:03:26;;;;;;;14.15;6.63;;;;;;;;;;5074861;28;20052;-63
2023/05/01 00:05:58;;;;;;;17.00;7.45;;;;;;;;;;5074532;28;20106;-63
2023/05/01 00:08:24;;;;;;;13.95;6.03;;;;;;;;;;5074624;28;20574;-63
2023/05/01 00:10:51;;;;;;;19.67;6.82;;;;;;;;;;5074144;28;20044;-63
2023/05/01 00:13:20;;;;;;;11.65;5.80;;;;;;;;;;5074178;28;20052;-63
2023/05/01 00:15:47;;;;;;;12.05;5.93;;;;;;;;;;5074396;28;20048;-63
2023/05/01 00:18:13;;;;;;;13.55;5.78;;;;;;;;;;5074376;28;20048;-63
2023/05/01 00:20:40;;;;;;;11.02;5.45;;;;;;;;;;5073890;28;20076;-63
2023/05/01 00:23:07;;;;;;;16.27;6.30;;;;;;;;;;5074334;28;20211;-63
2023/05/01 00:25:33;;;;;;;12.82;6.13;;;;;;;;;;5073921;28;20131;-63
2023/05/01 00:28:00;;;;;;;17.08;9.50;;;;;;;;;;5074162;28;20153;-63
2023/05/01 00:30:26;;;;;;;18.70;8.93;;;;;;;;;;5074326;28;20040;-63
2023/05/01 00:32:53;;;;;;;17.00;8.05;;;;;;;;;;5074152;28;20127;-63
2023/05/01 00:35:19;;;;;;;21.38;12.77;;;;;;;;;;5073887;28;20047;-63
2023/05/01 00:37:45;;;;;;;14.43;7.35;;;;;;;;;;5074079;28;20460;-63
2023/05/01 00:40:12;;;;;;;12.30;6.75;;;;;;;;;;5073677;28;20060;-63
2023/05/01 00:42:39;;;;;;;12.90;6.30;;;;;;;;;;5073926;28;20052;-63
2023/05/01 00:45:06;;;;;;;12.48;6.05;;;;;;;;;;5073875;28;20462;-63
2023/05/01 00:47:36;;;;;;;17.07;8.17;;;;;;;;;;5073930;28;20048;-63
2023/05/01 00:50:04;;;;;;;15.82;8.10;;;;;;;;;;5073510;28;20297;-63
2023/05/01 00:52:31;;;;;;;23.38;13.60;;;;;;;;;;5073510;28;20547;-63
2023/05/01 00:54:57;;;;;;;22.38;12.38;;;;;;;;;;5074006;28;20041;-63
2023/05/01 00:57:24;;;;;;;14.48;6.07;;;;;;;;;;5073226;28;20488;-63
2023/05/01 00:59:50;;;;;;;8.80;4.88;;;;;;;;;;5073388;28;20061;-63
2023/05/01 01:02:17;;;;;;;11.75;5.43;;;;;;;;;;5073609;28;20052;-63
2023/05/01 01:04:44;;;;;;;13.05;6.47;;;;;;;;;;5073458;28;20049;-63
2023/05/01 01:07:21;;;;;;;11.30;5.45;;;;;;;;;;5073192;28;20070;-63
2023/05/01 01:09:50;;;;;;;11.27;5.97;;;;;;;;;;5073046;28;20508;-63
2023/05/01 01:12:40;;;;;;;10.13;5.80;;;;;;;;;;5073123;28;20040;-63
2023/05/01 01:15:06;;;;;;;12.05;5.82;;;;;;;;;;5053698;28;20480;-63
2023/05/01 01:17:42;;;;;;;8.75;4.45;;;;;;;;;;5073053;28;20497;-64
2023/05/01 01:20:11;;;;;;;12.52;4.78;;;;;;;;;;5073154;28;20056;-63
2023/05/01 01:22:40;;;;;;;11.13;5.40;;;;;;;;;;5073160;28;20159;-63
2023/05/01 01:25:13;;;;;;;11.13;5.47;;;;;;;;;;5073090;28;20047;-63
2023/05/01 01:27:46;;;;;;;16.50;11.23;;;;;;;;;;5072850;28;20109;-63
2023/05/01 01:30:15;;;;;;;15.05;9.40;;;;;;;;;;5072888;28;20044;-63
2023/05/01 01:32:48;;;;;;;12.43;8.73;;;;;;;;;;5072660;28;20548;-63
2023/05/01 01:35:19;;;;;;;12.75;7.95;;;;;;;;;;5072200;28;20048;-63
2023/05/01 01:37:48;;;;;;;12.80;8.68;;;;;;;;;;5073064;28;20098;-63
2023/05/01 01:40:17;;;;;;;14.18;6.53;;;;;;;;;;5072506;28;20478;-63
2023/05/01 01:42:51;;;;;;;10.50;5.75;;;;;;;;;;5072593;28;20055;-63
2023/05/01 01:45:22;;;;;;;12.68;5.65;;;;;;;;;;5072409;28;20576;-63
2023/05/01 01:47:49;;;;;;;9.98;5.22;;;;;;;;;;5072762;28;20060;-63
2023/05/01 01:50:17;;;;;;;9.60;5.10;;;;;;;;;;5072398;28;20053;-63
2023/05/01 01:52:45;;;;;;;8.95;4.65;;;;;;;;;;5072696;28;20044;-63
2023/05/01 01:55:12;;;;;;;11.30;5.40;;;;;;;;;;5058171;28;20304;-63
2023/05/01 01:57:39;;;;;;;10.90;5.43;;;;;;;;;;5072464;28;20055;-63
2023/05/01 02:00:09;;;;;;;7.30;4.68;;;;;;;;;;5070955;28;20052;-63
2023/05/01 02:02:38;;;;;;;9.60;4.85;;;;;;;;;;5072150;28;20420;-63
2023/05/01 02:05:06;;;;;;;6.35;4.03;;;;;;;;;;5072213;28;20491;-63
2023/05/01 02:07:32;;;;;;;;;;;;;;;;;;5072467;28;20057;-63
2023/05/01 02:10:00;;;;;;;9.23;4.22;;;;;;;;;;5071988;28;20286;-63
2023/05/01 02:12:26;;;;;;;;;;;;;;;;;;5072732;28;20163;-63
2023/05/01 02:14:53;;;;;;;11.00;4.65;;;;;;;;;;5072000;28;19947;-63
2023/05/01 02:17:20;;;;;;;12.98;4.60;;;;;;;;;;5072212;28;20050;-63
2023/05/01 02:19:46;;;;;;;11.00;4.68;;;;;;;;;;5071861;28;20048;-63
2023/05/01 02:22:14;;;;;;;11.57;5.40;;;;;;;;;;5071759;28;20048;-63
2023/05/01 02:24:41;;;;;;;11.65;6.03;;;;;;;;;;5072123;28;20045;-63
2023/05/01 02:27:11;;;;;;;8.40;4.70;;;;;;;;;;5071964;28;20048;-63
2023/05/01 02:29:37;;;;;;;11.45;4.30;;;;;;;;;;5063499;28;20057;-63
2023/05/01 02:32:04;;;;;;;13.55;4.65;;;;;;;;;;5071704;28;20502;-63
2023/05/01 02:34:33;;;;;;;12.15;4.40;;;;;;;;;;5071691;28;20041;-63
2023/05/01 02:36:59;;;;;;;12.15;4.97;;;;;;;;;;5071589;28;20510;-63
2023/05/01 02:39:25;;;;;;;14.15;4.50;;;;;;;;;;5071926;28;20059;-63
2023/05/01 02:41:54;;;;;;;8.45;3.90;;;;;;;;;;5071899;28;20068;-63
2023/05/01 02:44:22;;;;;;;10.75;4.30;;;;;;;;;;5071556;28;20049;-63
2023/05/01 02:46:48;;;;;;;;;;;;;;;;;;5071904;28;20052;-63
2023/05/01 02:49:15;;;;;;;10.13;3.80;;;;;;;;;;5071521;28;19970;-63
2023/05/01 02:51:42;;;;;;;12.30;4.55;;;;;;;;;;5071993;28;20090;-63
2023/05/01 02:54:09;;;;;;;11.13;4.47;;;;;;;;;;5071882;28;20049;-63
2023/05/01 02:56:36;;;;;;;9.43;4.57;;;;;;;;;;5071602;28;20135;-63
2023/05/01 02:59:02;;;;;;;10.93;4.43;;;;;;;;;;5071138;28;20063;-63
2023/05/01 03:01:28;;;;;;;10.85;4.28;;;;;;;;;;5071460;28;20059;-63
2023/05/01 03:03:55;;;;;;;12.25;3.88;;;;;;;;;;5071797;28;20415;-63
2023/05/01 03:06:21;;;;;;;8.82;3.60;;;;;;;;;;5071509;28;20054;-63
2023/05/01 03:08:48;;;;;;;11.88;4.72;;;;;;;;;;5071653;28;20057;-63
2023/05/01 03:11:14;;;;;;;16.90;6.22;;;;;;;;;;5071187;28;20498;-63
2023/05/01 03:13:41;;;;;;;7.90;3.88;;;;;;;;;;5071347;28;20070;-63
2023/05/01 03:16:07;;;;;;;13.57;4.90;;;;;;;;;;5071226;28;20044;-63
2023/05/01 03:18:34;;;;;;;12.02;4.72;;;;;;;;;;5071567;28;20495;-63
2023/05/01 03:21:00;;;;;;;11.15;4.72;;;;;;;;;;5071466;28;20074;-63
2023/05/01 03:23:27;;;;;;;10.65;4.53;;;;;;;;;;5057170;28;20041;-63
2023/05/01 03:25:53;;;;;;;10.25;4.25;;;;;;;;;;5071534;28;20044;-63
2023/05/01 03:28:22;;;;;;;12.45;4.50;;;;;;;;;;5071592;28;20458;-63
2023/05/01 03:30:49;;;;;;;12.05;4.80;;;;;;;;;;5071132;28;20144;-63
2023/05/01 03:33:15;;;;;;;11.77;4.50;;;;;;;;;;5071062;28;20078;-63
2023/05/01 03:35:42;;;;;;;8.68;4.28;;;;;;;;;;5071176;28;20054;-63
2023/05/01 03:38:08;;;;;;;9.68;4.70;;;;;;;;;;5071318;28;20052;-63
2023/05/01 03:40:35;;;;;;;9.90;5.05;;;;;;;;;;5071384;28;20045;-63
2023/05/01 03:43:02;;;;;;;8.63;4.22;;;;;;;;;;5071329;28;20410;-63
2023/05/01 03:45:28;;;;;;;9.70;4.75;;;;;;;;;;5070924;28;20135;-63
2023/05/01 03:47:56;;;;;;;6.45;4.22;;;;;;;;;;5064277;28;20044;-63
2023/05/01 03:50:22;;;;;;;8.60;4.10;;;;;;;;;;5071032;28;20048;-63
2023/05/01 03:52:48;;;;;;;11.85;5.18;;;;;;;;;;5070844;28;20503;-63
2023/05/01 03:55:15;;;;;;;11.90;4.40;;;;;;;;;;5071413;28;20044;-63
2023/05/01 03:57:41;;;;;;;9.63;4.47;;;;;;;;;;5070829;28;20076;-63
2023/05/01 04:00:09;;;;;;;9.80;4.53;;;;;;;;;;5073620;28;20057;-63
2023/05/01 04:02:36;;;;;;;10.18;5.03;;;;;;;;;;5074392;28;20040;-63
2023/05/01 04:05:02;;;;;;;14.30;4.85;;;;;;;;;;5074273;28;20049;-63
2023/05/01 04:07:29;;;;;;;6.70;4.45;;;;;;;;;;5074260;28;20499;-63
2023/05/01 04:09:55;;;;;;;9.55;5.03;;;;;;;;;;5074601;28;20046;-63
2023/05/01 04:12:22;;;;;;;9.55;5.40;;;;;;;;;;5074225;28;20169;-63
2023/05/01 04:14:48;;;;;;;8.32;5.15;;;;;;;;;;5074151;28;20049;-63
2023/05/01 04:17:14;;;;;;;9.15;5.70;;;;;;;;;;5074189;28;20048;-63
2023/05/01 04:19:41;;;;;;;13.95;5.28;;;;;;;;;;5074115;28;20045;-63
2023/05/01 04:22:07;;;;;;;10.43;4.82;;;;;;;;;;5074303;28;20049;-63
2023/05/01 04:24:35;;;;;;;11.18;5.45;;;;;;;;;;5074142;28;20052;-64
2023/05/01 04:27:01;;;;;;;10.50;5.68;;;;;;;;;;5074051;28;20048;-63
2023/05/01 04:29:28;;;;;;;8.88;5.07;;;;;;;;;;5073972;28;20055;-63
2023/05/01 04:31:54;;;;;;;13.25;5.65;;;;;;;;;;5074136;28;20052;-63
2023/05/01 04:34:20;;;;;;;16.63;6.40;;;;;;;;;;5073901;28;20547;-63
2023/05/01 04:36:47;;;;;;;11.98;5.70;;;;;;;;;;5073820;28;20058;-63
2023/05/01 04:39:14;;;;;;;10.73;5.57;;;;;;;;;;5074059;28;20098;-63
2023/05/01 04:41:40;;;;;;;9.30;4.93;;;;;;;;;;5073784;28;20407;-63
2023/05/01 04:44:06;;;;;;;10.95;6.07;;;;;;;;;;5073675;28;20045;-63
2023/05/01 04:46:33;;;;;;;12.48;6.10;;;;;;;;;;5073623;28;20055;-63
2023/05/01 04:48:59;;;;;;;12.63;6.03;;;;;;;;;;5073688;28;20079;-63
2023/05/01 04:51:27;;;;;;;12.52;6.47;;;;;;;;;;5073596;28;20048;-63
2023/05/01 04:53:54;;;;;;;12.68;6.50;;;;;;;;;;5074024;28;20146;-63
2023/05/01 04:56:20;;;;;;;15.05;6.65;;;;;;;;;;5073369;28;20048;-63
2023/05/01 04:58:47;;;;;;;15.57;6.90;;;;;;;;;;5073526;28;20059;-63
2023/05/01 05:01:13;;;;;;;17.80;7.78;;;;;;;;;;5073538;28;20059;-63
2023/05/01 05:03:40;;;;;;;14.40;6.97;;;;;;;;;;5073407;28;20110;-63
2023/05/01 05:06:06;;;;;;;15.60;7.85;;;;;;;;;;5073569;28;20123;-63
2023/05/01 05:08:33;;;;;;;13.35;7.25;;;;;;;;;;5073202;28;20084;-63
2023/05/01 05:11:00;;;;;;;16.87;7.60;;;;;;;;;;5071934;28;20048;-63
2023/05/01 05:13:27;;;;;;;15.65;7.97;;;;;;;;;;5073563;28;20131;-63
2023/05/01 05:15:53;;;;;;;14.93;8.40;;;;;;;;;;5073254;28;20044;-63
2023/05/01 05:18:19;;;;;;;18.55;8.32;;;;;;;;;;5073307;28;20404;-63
2023/05/01 05:20:46;;;;;;;14.18;7.82;;;;;;;;;;5073151;28;20048;-63
2023/05/01 05:23:12;;;;;;;11.30;7.38;;;;;;;;;;5072971;28;20040;-63
2023/05/01 05:25:39;;;;;;;16.13;8.38;;;;;;;;;;5072651;28;20569;-64
2023/05/01 05:28:05;;;;;;;17.48;7.88;;;;;;;;;;5072976;28;20446;-63
2023/05/01 05:30:32;;;;;;;17.25;8.50;;;;;;;;;;5072857;28;20048;-63
2023/05/01 05:32:58;;;;;;;17.88;8.95;;;;;;;;;;5072968;28;20059;-63
2023/05/01 05:35:26;;;;;;;19.03;9.10;;;;;;;;;;5072770;28;20048;-63
2023/05/01 05:37:53;;;;;;;18.42;9.05;;;;;;;;;;5072505;28;20055;-63
2023/05/01 05:40:19;;;;;;;18.13;9.48;;;;;;;;;;5057172;28;20045;-64
2023/05/01 05:42:46;;;;;;;15.32;9.30;;;;;;;;;;5052491;28;20138;-63
2023/05/01 05:45:12;;;;;;;21.75;10.73;;;;;;;;;;5052583;28;20053;-63
2023/05/01 05:47:39;;;;;;;17.98;9.77;;;;;;;;;;5052515;28;20136;-63
2023/05/01 05:50:06;;;;;;;18.50;9.55;;;;;;;;;;5052396;28;20139;-63
2023/05/01 05:52:33;;;;;;;18.13;9.32;;;;;;;;;;5064760;28;20087;-64
2023/05/01 05:54:59;;;;;;;19.08;9.35;;;;;;;;;;5072466;28;20075;-63
2023/05/01 05:57:26;;;;;;;15.75;8.93;;;;;;;;;;5072410;28;20056;-64
2023/05/01 05:59:53;;;;;;;16.30;9.55;;;;;;;;;;5072018;28;20063;-63
2023/05/01 06:02:20;;;;;;;16.58;8.38;;;;;;;;;;5072383;28;20136;-64
2023/05/01 06:04:47;;;;;;;12.80;9.02;;;;;;;;;;5070392;28;20044;-63
2023/05/01 06:07:14;;;;;;;14.07;9.18;;;;;;;;;;5071407;28;20088;-64
2023/05/01 06:09:40;;;;;;;16.88;10.10;;;;;;;;;;5071953;28;20048;-63
2023/05/01 06:12:07;;;;;;;16.52;9.27;;;;;;;;;;5072206;28;20044;-63
2023/05/01 06:14:33;;;;;;;13.77;9.00;;;;;;;;;;5072185;28;20048;-63
2023/05/01 06:17:00;;;;;;;16.92;10.23;;;;;;;;;;5057351;28;20059;-64
2023/05/01 06:19:26;;;;;;;18.90;11.07;;;;;;;;;;5072210;28;20056;-63
2023/05/01 06:21:53;;;;;;;20.83;11.27;;;;;;;;;;5056796;28;20055;-63
2023/05/01 06:24:19;;;;;;;17.42;11.93;;;;;;;;;;5072335;28;20052;-63
2023/05/01 06:26:45;;;;;;;20.73;12.23;;;;;;;;;;5065746;28;20060;-64
2023/05/01 06:29:12;;;;;;;19.85;12.20;;;;;;;;;;5055119;28;20057;-64
2023/05/01 06:31:38;;;;;;;20.90;12.05;;;;;;;;;;5051660;28;20045;-64
2023/05/01 06:34:05;;;;;;;21.67;11.77;;;;;;;;;;5054710;28;20056;-63
2023/05/01 06:36:31;;;;;;;16.83;11.50;;;;;;;;;;5071682;28;20049;-63
2023/05/01 06:38:57;;;;;;;18.20;11.90;;;;;;;;;;5071596;28;20070;-63
2023/05/01 06:41:24;;;;;;;15.70;11.32;;;;;;;;;;5070577;28;20131;-63
2023/05/01 06:43:51;;;;;;;19.73;11.50;;;;;;;;;;5072073;28;20055;-63
2023/05/01 06:46:17;;;;;;;16.05;10.48;;;;;;;;;;5071183;28;20131;-63
2023/05/01 06:48:43;;;;;;;15.38;10.32;;;;;;;;;;5071145;28;20048;-64
2023/05/01 06:51:13;;;;;;;15.85;10.20;;;;;;;;;;5064392;28;20053;-63
2023/05/01 06:53:40;;;;;;;16.48;10.45;;;;;;;;;;5065046;28;20084;-63
2023/05/01 06:56:07;;;;;;;18.57;11.03;;;;;;;;;;5071748;28;20067;-64
2023/05/01 06:58:33;;;;;;;13.95;10.68;;;;;;;;;;5071439;28;20059;-64
2023/05/01 07:00:59;;;;;;;15.07;10.02;;;;;;;;;;5071495;28;20055;-64
2023/05/01 07:03:29;;;;;;;17.88;11.05;;;;;;;;;;5071457;28;20496;-64
2023/05/01 07:05:55;;;;;;;16.50;10.65;;;;;;;;;;5071618;28;20051;-64
2023/05/01 07:08:23;;;;;;;15.45;10.60;;;;;;;;;;5070552;28;20132;-63
2023/05/01 07:10:49;;;;;;;16.45;11.05;;;;;;;;;;5071503;28;20043;-63
2023/05/01 07:13:16;;;;;;;10.85;9.32;;;;;;;;;;5071361;28;20480;-63
2023/05/01 07:15:42;;;;;;;14.70;9.63;;;;;;;;;;5071257;28;20048;-63
2023/05/01 07:18:08;;;;;;;12.35;7.93;;;;;;;;;;5070603;28;20055;-63
2023/05/01 07:20:35;;;;;;;13.95;7.13;;;;;;;;;;5071618;28;20127;-63
2023/05/01 07:23:02;;;;;;;14.20;9.23;;;;;;;;;;5071465;28;20088;-64
2023/05/01 07:25:31;;;;;;;18.67;12.63;;;;;;;;;;5059336;28;20084;-64
2023/05/01 07:27:59;;;;;;;17.52;13.65;;;;;;;;;;5052151;28;20088;-64
2023/05/01 07:30:26;;;;;;;30.35;24.40;;;;;;;;;;5043343;28;20499;-64
2023/05/01 07:32:52;;;;;;;21.07;13.40;;;;;;;;;;5071418;28;20048;-63
2023/05/01 07:35:19;;;;;;;11.50;7.85;;;;;;;;;;5074582;28;20419;-63
2023/05/01 07:37:45;;;;;;;9.75;6.95;;;;;;;;;;5071951;28;20045;-63
2023/05/01 07:40:11;;;;;;;10.18;6.63;;;;;;;;;;5054601;28;20045;-64
2023/05/01 07:42:38;;;;;;;12.05;7.65;;;;;;;;;;5071458;28;20079;-64
2023/05/01 07:45:05;;;;;;;9.05;6.25;;;;;;;;;;5056219;28;20049;-64
2023/05/01 07:47:31;;;;;;;10.25;6.32;;;;;;;;;;5054648;28;20041;-63
2023/05/01 07:49:58;;;;;;;7.88;5.38;;;;;;;;;;5054783;28;20088;-64
2023/05/01 07:52:24;;;;;;;8.88;6.35;;;;;;;;;;5054166;28;20505;-63
2023/05/01 07:54:51;;;;;;;7.93;5.87;;;;;;;;;;5054552;28;20400;-63
2023/05/01 07:57:18;;;;;;;8.40;5.77;;;;;;;;;;5072344;28;20131;-64
2023/05/01 07:59:44;;;;;;;9.82;6.05;;;;;;;;;;5069452;28;20087;-63
2023/05/01 08:02:12;;;;;;;8.90;5.38;;;;;;;;;;5064669;28;20063;-64
2023/05/01 08:04:40;;;;;;;9.27;5.93;;;;;;;;;;5074360;28;20055;-64
2023/05/01 08:07:07;;;;;;;7.80;5.68;;;;;;;;;;5065861;28;20416;-64
2023/05/01 08:09:33;;;;;;;7.75;5.03;;;;;;;;;;5069327;28;20136;-64
2023/05/01 08:12:02;;;;;;;8.75;4.95;;;;;;;;;;5060860;28;20051;-63
2023/05/01 08:14:29;;;;;;;8.95;5.80;;;;;;;;;;5054191;28;20123;-64
2023/05/01 08:16:56;;;;;;;10.25;5.68;;;;;;;;;;5063196;28;20047;-64
2023/05/01 08:19:22;;;;;;;8.52;6.45;;;;;;;;;;5074284;28;20051;-63
2023/05/01 08:21:48;;;;;;;13.95;9.52;;;;;;;;;;5074260;28;20083;-64
2023/05/01 08:24:15;;;;;;;9.45;6.88;;;;;;;;;;5058494;28;20056;-67
2023/05/01 08:26:42;;;;;;;9.77;5.43;;;;;;;;;;5053820;28;20131;-67
2023/05/01 08:29:08;;;;;;;10.25;6.25;;;;;;;;;;5052971;28;20048;-67
2023/05/01 08:31:36;;;;;;;8.13;4.88;;;;;;;;;;5053396;28;20060;-66
2023/05/01 08:34:03;;;;;;;7.65;5.30;;;;;;;;;;5053443;28;20045;-66
2023/05/01 08:36:31;;;;;;;9.85;4.63;;;;;;;;;;5051631;28;20564;-65
2023/05/01 08:38:57;;;;;;;;;;;;;;;;;;5053448;28;20131;-66
2023/05/01 08:41:24;;;;;;;7.97;4.68;;;;;;;;;;5053415;28;19928;-66
2023/05/01 08:43:51;;;;;;;7.55;4.72;;;;;;;;;;5050950;28;20578;-63
2023/05/01 08:46:37;;;;;;;5.97;3.60;;;;;;;;;;5060861;28;20045;-63
2023/05/01 08:49:05;;;;;;;6.57;4.00;;;;;;;;;;5055105;28;20052;-64
2023/05/01 08:51:32;;;;;;;6.75;4.28;;;;;;;;;;5057172;28;20059;-63
2023/05/01 08:54:00;;;;;;;5.30;3.83;;;;;;;;;;5053281;28;20049;-64
2023/05/01 08:56:30;;;;;;;5.63;3.30;;;;;;;;;;5054952;28;20055;-64
2023/05/01 08:58:57;;;;;;;8.05;3.35;;;;;;;;;;5055523;28;20052;-64
2023/05/01 09:01:23;;;;;;;;;;;;;;;;;;5061330;28;20051;-64
2023/05/01 09:03:51;;;;;;;4.37;2.80;;;;;;;;;;5057250;28;19924;-65
2023/05/01 09:06:19;;;;;;;4.18;2.67;;;;;;;;;;5063181;28;20304;-64
2023/05/01 09:08:45;;;;;;;5.10;3.15;;;;;;;;;;5065662;28;20053;-64
2023/05/01 09:11:11;;;;;;;4.93;2.50;;;;;;;;;;5072720;28;20571;-65
2023/05/01 09:13:38;;;;;;;4.05;2.60;;;;;;;;;;5068757;28;20041;-65
2023/05/01 09:16:05;;;;;;;4.57;2.20;;;;;;;;;;5057146;28;20044;-65
2023/05/01 09:18:31;;;;;;;;;;;;;;;;;;5058869;28;20096;-64
2023/05/01 09:20:58;;;;;;;3.80;2.10;;;;;;;;;;5066614;28;20034;-65
2023/05/01 09:23:24;;;;;;;3.47;2.45;;;;;;;;;;5072638;28;20059;-65
2023/05/01 09:25:51;;;;;;;4.53;2.58;;;;;;;;;;5072701;28;20126;-64
2023/05/01 09:28:17;;;;;;;4.63;2.70;;;;;;;;;;5065777;28;20049;-64
2023/05/01 09:30:44;;;;;;;4.72;3.28;;;;;;;;;;5064416;28;20573;-64
2023/05/01 09:33:11;;;;;;;5.50;3.07;;;;;;;;;;5067900;28;20131;-64
2023/05/01 09:35:48;;;;;;;3.38;2.75;;;;;;;;;;5062569;28;20055;-64
2023/05/01 09:38:18;;;;;;;7.20;3.67;;;;;;;;;;5072353;28;20128;-64
2023/05/01 09:40:45;;;;;;;4.45;3.40;;;;;;;;;;5072325;28;20121;-64
2023/05/01 09:43:12;;;;;;;5.32;3.35;;;;;;;;;;5070186;28;20411;-64
2023/05/01 09:45:41;;;;;;;5.97;3.23;;;;;;;;;;5072228;28;20067;-64
2023/05/01 09:48:10;;;;;;;4.90;3.72;;;;;;;;;;5072092;28;20055;-64
2023/05/01 09:50:40;;;;;;;6.22;3.45;;;;;;;;;;5072144;28;20052;-64
2023/05/01 09:53:07;;;;;;;4.30;3.25;;;;;;;;;;5071994;28;20128;-63
2023/05/01 09:55:34;;;;;;;4.35;2.17;;;;;;;;;;5072061;28;20407;-64
2023/05/01 09:58:00;;;;;;;6.03;2.70;;;;;;;;;;5071097;28;20395;-64
2023/05/01 10:00:28;;;;;;;3.85;2.20;;;;;;;;;;5071902;28;20459;-64
2023/05/01 10:02:55;;;;;;;5.13;3.15;;;;;;;;;;5071845;28;20419;-65
2023/05/01 10:05:22;;;;;;;4.00;2.42;;;;;;;;;;5071522;28;20071;-65
2023/05/01 10:07:58;;;;;;;3.97;2.42;;;;;;;;;;5072037;28;20102;-65
2023/05/01 10:10:25;;;;;;;3.65;2.03;;;;;;;;;;5071655;28;20492;-64
2023/05/01 10:12:51;;;;;;;5.38;2.15;;;;;;;;;;5071865;28;20414;-65
2023/05/01 10:15:19;;;;;;;2.50;1.67;;;;;;;;;;5067899;28;20051;-64
2023/05/01 10:17:52;;;;;;;2.20;1.75;;;;;;;;;;5062077;28;20442;-65
2023/05/01 10:20:19;;;;;;;4.55;1.98;;;;;;;;;;5071410;28;20048;-65
2023/05/01 10:22:47;;;;;;;3.38;1.92;;;;;;;;;;5063927;28;20078;-69
2023/05/01 10:25:14;;;;;;;3.20;2.20;;;;;;;;;;5051191;28;20060;-68
2023/05/01 10:27:41;;;;;;;3.38;1.95;;;;;;;;;;5051130;28;20064;-69
2023/05/01 10:30:08;;;;;;;2.65;2.03;;;;;;;;;;5051269;28;20092;-67
2023/05/01 10:32:36;;;;;;;1.95;1.23;;;;;;;;;;5051187;28;20056;-68
2023/05/01 10:35:11;;;;;;;1.98;1.38;;;;;;;;;;5051455;28;20098;-69
2023/05/01 10:37:43;;;;;;;3.55;2.10;;;;;;;;;;5051163;28;20048;-65
2023/05/01 10:40:42;;;;;;;4.05;1.60;;;;;;;;;;5059095;28;20154;-67
2023/05/01 10:43:11;;;;;;;3.35;1.92;;;;;;;;;;5019553;28;20045;-68
2023/05/01 10:45:38;;;;;;;2.72;1.90;;;;;;;;;;5057699;28;20056;-67
2023/05/01 10:48:04;;;;;;;2.80;1.70;;;;;;;;;;5068159;28;20049;-68
2023/05/01 10:50:31;;;;;;;2.83;1.45;;;;;;;;;;5051250;28;20136;-68
2023/05/01 10:52:58;;;;;;;;;;;;;;;;;;5051476;28;20110;-67
2023/05/01 10:55:33;;;;;;;2.58;1.80;;;;;;;;;;5053067;28;19931;-63
2023/05/01 10:57:59;;;;;;;2.53;1.35;;;;;;;;;;5070979;28;20045;-67
2023/05/01 11:00:26;;;;;;;2.03;1.02;;;;;;;;;;5071066;28;20055;-66
2023/05/01 11:03:11;;;;;;;1.50;1.00;;;;;;;;;;5070917;28;20059;-67
2023/05/01 11:05:56;;;;;;;2.17;1.02;;;;;;;;;;5067567;28;20080;-67
2023/05/01 11:08:32;;;;;;;2.25;1.42;;;;;;;;;;5071454;28;20502;-67
2023/05/01 11:10:58;;;;;;;;;;;;;;;;;;5075459;28;20109;-66
2023/05/01 11:13:44;;;;;;;3.15;1.40;;;;;;;;;;5074876;28;20381;-67
2023/05/01 11:16:29;;;;;;;1.42;1.27;;;;;;;;;;5075072;28;20471;-66
2023/05/01 11:18:56;;;;;;;2.33;1.50;;;;;;;;;;5073526;28;20094;-66
2023/05/01 11:21:27;;;;;;;1.75;1.40;;;;;;;;;;5061730;28;20075;-66
2023/05/01 11:23:54;;;;;;;5.07;1.90;;;;;;;;;;5054924;28;20057;-67
2023/05/01 11:26:21;;;;;;;1.02;1.00;;;;;;;;;;5068110;28;20054;-66
2023/05/01 11:28:51;;;;;;;3.15;1.98;;;;;;;;;;5074483;28;20571;-66
2023/05/01 11:31:18;;;;;;;1.98;0.98;;;;;;;;;;5074623;28;20056;-66
2023/05/01 11:33:45;;;;;;;7.78;1.98;;;;;;;;;;5074381;28;20521;-65
2023/05/01 11:36:12;;;;;;;6.10;1.83;;;;;;;;;;5074414;28;20091;-65
2023/05/01 11:38:39;;;;;;;;;;;;;;;;;;5074998;28;20143;-65
2023/05/01 11:41:05;;;;;;;1.20;1.02;;;;;;;;;;5074445;28;19924;-66
2023/05/01 11:43:32;;;;;;;3.00;1.17;;;;;;;;;;5072433;28;20053;-66
2023/05/01 11:46:01;;;;;;;1.75;1.00;;;;;;;;;;5074377;28;20478;-66
2023/05/01 11:48:29;;;;;;;2.55;1.35;;;;;;;;;;5074641;28;20053;-66
2023/05/01 11:50:55;;;;;;;;;;;;;;;;;;5074523;28;20059;-67
2023/05/01 11:53:21;;;;;;;;;;;;;;;;;;5074465;28;19930;-66
2023/05/01 11:55:48;;;;;;;1.02;0.60;;;;;;;;;;5074117;28;20374;-66
2023/05/01 11:58:14;;;;;;;1.25;0.50;;;;;;;;;;5074075;28;20066;-66
2023/05/01 12:00:41;;;;;;;1.33;0.52;;;;;;;;;;5074207;28;20086;-67
2023/05/01 12:03:09;;;;;;;2.00;0.50;;;;;;;;;;5074030;28;20048;-66
2023/05/01 12:05:37;;;;;;;2.72;0.90;;;;;;;;;;5074028;28;20124;-66
2023/05/01 12:08:20;;;;;;;2.20;0.70;;;;;;;;;;5073850;28;20530;-66
2023/05/01 12:10:51;;;;;;;2.65;0.82;;;;;;;;;;5073724;28;20127;-66
2023/05/01 12:13:18;;;;;;;2.15;1.17;;;;;;;;;;5072574;28;20393;-66
2023/05/01 12:15:45;;;;;;;1.77;0.90;;;;;;;;;;5073666;28;20045;-66
2023/05/01 12:18:12;;;;;;;5.22;1.30;;;;;;;;;;5074052;28;20055;-66
2023/05/01 12:20:43;;;;;;;3.05;1.20;;;;;;;;;;5049983;28;20053;-65
2023/05/01 12:23:12;;;;;;;1.77;1.05;;;;;;;;;;5053512;28;20080;-65
2023/05/01 12:25:38;;;;;;;1.80;0.70;;;;;;;;;;5052731;28;20081;-65
2023/05/01 12:28:10;;;;;;;3.00;0.93;;;;;;;;;;5053590;28;20095;-65
2023/05/01 12:30:36;;;;;;;2.88;1.20;;;;;;;;;;5051529;28;20049;-65
2023/05/01 12:33:13;;;;;;;3.92;1.70;;;;;;;;;;5052466;28;20052;-65
2023/05/01 12:35:41;;;;;;;2.88;1.38;;;;;;;;;;5051740;28;20419;-66
2023/05/01 12:38:11;;;;;;;2.03;1.20;;;;;;;;;;5053311;28;20518;-66
2023/05/01 12:40:38;;;;;;;3.28;1.48;;;;;;;;;;5052848;28;20459;-65
2023/05/01 12:43:04;;;;;;;1.25;0.85;;;;;;;;;;5053517;28;20053;-66
2023/05/01 12:45:37;;;;;;;1.83;0.90;;;;;;;;;;5051719;28;20055;-65
2023/05/01 12:48:08;;;;;;;1.48;1.10;;;;;;;;;;5053401;28;20049;-66
2023/05/01 12:50:36;;;;;;;2.08;0.77;;;;;;;;;;5041768;28;20056;-66
2023/05/01 12:53:02;;;;;;;1.60;0.60;;;;;;;;;;5070011;28;20555;-66
2023/05/01 12:55:29;;;;;;;1.10;0.50;;;;;;;;;;5067732;28;20132;-66
2023/05/01 12:57:55;;;;;;;0.75;0.50;;;;;;;;;;5057455;28;20480;-65
2023/05/01 13:00:22;;;;;;;1.02;0.50;;;;;;;;;;5052707;28;20580;-65
2023/05/01 13:02:48;;;;;;;1.00;0.73;;;;;;;;;;5053071;28;20053;-66
2023/05/01 13:05:15;;;;;;;0.93;0.40;;;;;;;;;;5053184;28;20136;-66
2023/05/01 13:07:46;;;;;;;2.00;0.80;;;;;;;;;;5052987;28;20050;-69
2023/05/01 13:10:13;;;;;;;3.88;0.88;;;;;;;;;;5070549;28;20087;-68
2023/05/01 13:12:43;;;;;;;2.50;1.60;;;;;;;;;;5058883;28;20099;-67
2023/05/01 13:15:20;;;;;;;5.65;5.25;;;;;;;;;;5073272;28;20070;-66
2023/05/01 13:17:46;;;;;;;2.35;2.03;;;;;;;;;;5059563;28;20052;-67
2023/05/01 13:20:14;;;;;;;0.52;0.25;;;;;;;;;;5071998;28;20144;-67
2023/05/01 13:22:40;;;;;;;1.55;0.30;;;;;;;;;;5062483;28;20059;-67
2023/05/01 13:25:14;;;;;;;2.58;1.92;;;;;;;;;;5071911;28;20131;-67
2023/05/01 13:27:45;;;;;;;2.45;2.28;;;;;;;;;;5062598;28;20087;-67
2023/05/01 13:30:11;;;;;;;1.38;0.90;;;;;;;;;;5072013;28;20037;-67
2023/05/01 13:32:39;;;;;;;3.55;0.90;;;;;;;;;;5061299;28;20036;-67
2023/05/01 13:35:07;;;;;;;1.65;0.55;;;;;;;;;;5072455;28;20086;-67
2023/05/01 13:37:38;;;;;;;1.27;0.70;;;;;;;;;;5060907;28;20049;-67
2023/05/01 13:40:05;;;;;;;1.65;0.55;;;;;;;;;;5072659;28;20053;-66
2023/05/01 13:42:31;;;;;;;2.10;0.60;;;;;;;;;;5050834;28;20045;-67
2023/05/01 13:44:58;;;;;;;2.08;0.68;;;;;;;;;;5072672;28;20048;-67
2023/05/01 13:47:27;;;;;;;1.08;0.52;;;;;;;;;;5060829;28;20048;-67
2023/05/01 13:49:54;;;;;;;1.98;0.55;;;;;;;;;;5071881;28;20053;-67
2023/05/01 13:52:21;;;;;;;0.50;0.30;;;;;;;;;;5052341;28;20057;-67
2023/05/01 13:54:48;;;;;;;0.68;0.30;;;;;;;;;;5067872;28;20522;-67
2023/05/01 13:57:16;;;;;;;2.92;0.88;;;;;;;;;;5065246;28;20048;-65
2023/05/01 13:59:43;;;;;;;1.42;0.45;;;;;;;;;;5071648;28;20074;-66
2023/05/01 14:02:20;;;;;;;0.93;0.40;;;;;;;;;;5063886;28;20055;-65
2023/05/01 14:04:47;;;;;;;2.72;0.63;;;;;;;;;;5072383;28;20063;-63
2023/05/01 14:07:17;;;;;;;2.08;0.60;;;;;;;;;;5063125;28;20045;-65
2023/05/01 14:09:46;;;;;;;0.40;0.30;;;;;;;;;;5071632;28;20045;-65
2023/05/01 14:12:13;;;;;;;1.00;0.43;;;;;;;;;;5055166;28;20127;-65
2023/05/01 14:14:43;;;;;;;0.75;0.50;;;;;;;;;;5071905;28;20484;-65
2023/05/01 14:17:09;;;;;;;1.35;0.40;;;;;;;;;;5053124;28;20055;-65
2023/05/01 14:19:37;;;;;;;1.25;0.40;;;;;;;;;;5069754;28;20101;-67
2023/05/01 14:22:06;;;;;;;2.58;0.50;;;;;;;;;;5056469;28;20133;-66
2023/05/01 14:24:38;;;;;;;1.08;0.38;;;;;;;;;;5067839;28;20052;-67
2023/05/01 14:27:08;;;;;;;1.63;0.60;;;;;;;;;;5053381;28;20210;-67
2023/05/01 14:29:35;;;;;;;1.92;0.50;;;;;;;;;;5053944;28;20171;-67
2023/05/01 14:32:03;;;;;;;1.02;0.30;;;;;;;;;;5054223;28;20697;-67
2023/05/01 14:34:29;;;;;;;2.15;0.57;;;;;;;;;;5051378;28;20108;-67
2023/05/01 14:36:57;;;;;;;1.38;0.50;;;;;;;;;;5061739;28;20386;-66
2023/05/01 14:39:24;;;;;;;1.55;0.65;;;;;;;;;;5052625;28;20072;-66
2023/05/01 14:41:51;;;;;;;2.15;0.80;;;;;;;;;;5060145;28;20129;-66